createdAt,value
2022-09-03T00:00:16.311Z,5.20
2022-09-03T00:03:06.649Z,4.60
2022-09-03T00:05:51.672Z,5.80
2022-09-03T00:08:42.727Z,4.90
2022-09-03T00:11:23.926Z,5.47
2022-09-03T00:14:03.176Z,5.37
2022-09-03T00:16:43.624Z,5.17
2022-09-03T00:19:13.263Z,4.73
2022-09-03T00:21:46.207Z,5.13
2022-09-03T00:24:17.678Z,4.77
2022-09-03T00:26:51.954Z,5.33
2022-09-03T00:29:24.314Z,5.27
2022-09-03T00:31:56.537Z,5.40
2022-09-03T00:34:30.714Z,5.23
2022-09-03T00:36:57.326Z,5.57
2022-09-03T00:39:26.561Z,4.13
2022-09-03T00:42:40.024Z,5.07
2022-09-03T00:45:33.783Z,5.47
2022-09-03T00:48:27.884Z,5.40
2022-09-03T00:51:17.252Z,5.60
2022-09-03T00:54:20.408Z,6.10
2022-09-03T00:57:16.890Z,5.63
2022-09-03T00:59:51.987Z,6.80
2022-09-03T01:02:35.194Z,6.53
2022-09-03T01:05:22.773Z,6.50
2022-09-03T01:08:04.180Z,6.53
2022-09-03T01:10:53.051Z,6.70
2022-09-03T01:13:40.770Z,6.90
2022-09-03T01:16:25.447Z,8.10
2022-09-03T01:19:11.759Z,7.33
2022-09-03T01:22:20.182Z,7.10
2022-09-03T01:25:15.037Z,6.40
2022-09-03T01:28:40.599Z,7.10
2022-09-03T01:31:28.703Z,6.93
2022-09-03T01:34:01.741Z,7.37
2022-09-03T01:36:44.544Z,6.67
2022-09-03T01:39:24.760Z,8.50
2022-09-03T01:42:20.936Z,8.07
2022-09-03T01:45:16.291Z,9.03
2022-09-03T01:47:54.851Z,7.70
2022-09-03T01:50:50.438Z,7.27
2022-09-03T01:53:34.742Z,7.23
2022-09-03T01:56:42.797Z,7.50
2022-09-03T01:59:18.264Z,8.00
2022-09-03T02:01:56.864Z,7.63
2022-09-03T02:04:25.618Z,8.63
2022-09-03T02:06:53.286Z,9.00
2022-09-03T02:09:20.791Z,8.90
2022-09-03T02:11:57.640Z,8.07
2022-09-03T02:14:26.689Z,8.17
2022-09-03T02:16:55.136Z,7.50
2022-09-03T02:19:21.491Z,8.13
2022-09-03T02:21:53.045Z,7.30
2022-09-03T02:24:19.619Z,10.40
2022-09-03T02:26:46.768Z,8.60
2022-09-03T02:29:15.277Z,8.60
2022-09-03T02:31:41.686Z,9.07
2022-09-03T02:34:08.059Z,9.50
2022-09-03T02:36:37.779Z,9.20
2022-09-03T02:39:05.023Z,9.27
2022-09-03T02:41:32.368Z,8.83
2022-09-03T02:44:09.520Z,8.80
2022-09-03T02:46:39.697Z,8.83
2022-09-03T02:49:06.895Z,9.00
2022-09-03T02:51:38.807Z,9.70
2022-09-03T02:54:05.839Z,10.67
2022-09-03T02:56:32.464Z,10.90
2022-09-03T02:58:58.935Z,10.93
2022-09-03T03:01:25.359Z,10.50
2022-09-03T03:03:52.531Z,10.67
2022-09-03T03:06:22.538Z,10.77
2022-09-03T03:08:49.997Z,10.23
2022-09-03T03:11:18.278Z,11.43
2022-09-03T03:13:48.005Z,10.27
2022-09-03T03:16:17.187Z,10.57
2022-09-03T03:18:46.292Z,10.53
2022-09-03T03:21:15.121Z,10.67
2022-09-03T03:23:42.206Z,10.67
2022-09-03T03:26:11.236Z,10.70
2022-09-03T03:28:37.773Z,11.23
2022-09-03T03:31:08.461Z,10.73
2022-09-03T03:33:35.521Z,11.73
2022-09-03T03:36:10.600Z,10.60
2022-09-03T03:38:37.496Z,11.10
2022-09-03T03:41:11.262Z,12.00
2022-09-03T03:43:37.876Z,10.03
2022-09-03T03:46:05.294Z,9.47
2022-09-03T03:48:32.957Z,8.70
2022-09-03T03:51:04.832Z,9.17
2022-09-03T03:53:31.610Z,8.90
2022-09-03T03:56:00.130Z,8.63
2022-09-03T03:58:26.829Z,9.20
2022-09-03T04:00:53.565Z,7.10
2022-09-03T04:03:20.278Z,7.40
2022-09-03T04:06:00.627Z,7.03
2022-09-03T04:08:27.645Z,6.20
2022-09-03T04:10:54.571Z,6.07
2022-09-03T04:13:20.936Z,5.60
2022-09-03T04:15:47.298Z,5.43
2022-09-03T04:18:13.690Z,4.30
2022-09-03T04:20:40.074Z,4.33
2022-09-03T04:23:06.494Z,3.90
2022-09-03T04:25:33.504Z,3.70
2022-09-03T04:28:00.279Z,3.40
2022-09-03T04:30:27.683Z,4.43
2022-09-03T04:32:54.419Z,3.80
2022-09-03T04:35:22.150Z,3.70
2022-09-03T04:37:49.014Z,3.97
2022-09-03T04:40:15.817Z,4.10
2022-09-03T04:42:42.355Z,4.60
2022-09-03T04:45:09.469Z,4.67
2022-09-03T04:47:38.451Z,5.80
2022-09-03T04:50:06.584Z,5.43
2022-09-03T04:52:33.231Z,5.73
2022-09-03T04:54:59.569Z,5.40
2022-09-03T04:57:26.584Z,5.50
2022-09-03T04:59:52.971Z,6.30
2022-09-03T05:02:21.080Z,6.13
2022-09-03T05:04:47.698Z,5.77
2022-09-03T05:07:14.180Z,5.70
2022-09-03T05:09:40.525Z,4.50
2022-09-03T05:12:07.103Z,4.77
2022-09-03T05:14:33.502Z,4.40
2022-09-03T05:17:00.073Z,5.00
2022-09-03T05:19:26.672Z,4.80
2022-09-03T05:21:53.016Z,4.23
2022-09-03T05:24:19.345Z,4.97
2022-09-03T05:26:45.740Z,4.30
2022-09-03T05:29:12.138Z,4.20
2022-09-03T05:31:39.170Z,5.10
2022-09-03T05:34:06.703Z,5.27
2022-09-03T05:36:36.640Z,5.00
2022-09-03T05:39:04.158Z,4.23
2022-09-03T05:41:31.264Z,4.53
2022-09-03T05:44:00.732Z,4.73
2022-09-03T05:46:32.580Z,3.47
2022-09-03T05:49:01.925Z,4.10
2022-09-03T05:51:29.625Z,3.50
2022-09-03T05:53:56.318Z,3.80
2022-09-03T05:56:25.563Z,3.13
2022-09-03T05:58:54.123Z,3.73
2022-09-03T06:01:22.780Z,3.40
2022-09-03T06:03:58.530Z,3.50
2022-09-03T06:06:27.042Z,2.87
2022-09-03T06:08:58.668Z,3.07
2022-09-03T06:11:29.403Z,3.20
2022-09-03T06:14:01.321Z,2.80
2022-09-03T06:16:31.787Z,2.47
2022-09-03T06:18:59.703Z,3.23
2022-09-03T06:21:26.261Z,3.10
2022-09-03T06:23:59.840Z,2.60
2022-09-03T06:26:28.477Z,2.30
2022-09-03T06:28:55.027Z,2.43
2022-09-03T06:31:22.597Z,2.70
2022-09-03T06:33:49.581Z,3.13
2022-09-03T06:36:18.390Z,2.47
2022-09-03T06:38:46.364Z,2.60
2022-09-03T06:41:21.296Z,3.10
2022-09-03T06:43:49.044Z,2.30
2022-09-03T06:46:17.748Z,2.90
2022-09-03T06:48:45.575Z,2.60
2022-09-03T06:51:23.605Z,3.70
2022-09-03T06:53:59.391Z,2.90
2022-09-03T06:56:28.778Z,2.83
2022-09-03T06:58:57.759Z,3.40
2022-09-03T07:01:32.986Z,3.03
2022-09-03T07:04:04.643Z,2.60
2022-09-03T07:06:37.057Z,3.20
2022-09-03T07:09:03.603Z,3.37
2022-09-03T07:11:33.267Z,3.23
2022-09-03T07:14:00.193Z,3.33
2022-09-03T07:16:29.616Z,3.10
2022-09-03T07:18:57.201Z,3.70
2022-09-03T07:21:26.082Z,2.93
2022-09-03T07:23:54.062Z,3.00
2022-09-03T07:26:30.169Z,3.10
2022-09-03T07:28:57.572Z,3.60
2022-09-03T07:31:26.699Z,2.80
2022-09-03T07:34:05.958Z,3.37
2022-09-03T07:36:46.792Z,3.50
2022-09-03T07:39:15.760Z,3.60
2022-09-03T07:41:44.021Z,3.40
2022-09-03T07:44:10.930Z,3.13
2022-09-03T07:46:38.399Z,4.50
2022-09-03T07:49:06.153Z,3.60
2022-09-03T07:51:35.967Z,3.23
2022-09-03T07:54:06.965Z,4.23
2022-09-03T07:56:35.205Z,4.10
2022-09-03T07:59:03.063Z,4.40
2022-09-03T08:01:31.601Z,3.83
2022-09-03T08:03:58.313Z,4.33
2022-09-03T08:06:27.164Z,4.50
2022-09-03T08:09:04.652Z,4.57
2022-09-03T08:11:35.191Z,5.10
2022-09-03T08:14:06.285Z,4.20
2022-09-03T08:16:38.241Z,4.10
2022-09-03T08:19:05.295Z,4.27
2022-09-03T08:21:31.923Z,4.30
2022-09-03T08:24:02.599Z,3.80
2022-09-03T08:26:35.573Z,3.87
2022-09-03T08:29:02.703Z,3.53
2022-09-03T08:31:29.718Z,3.10
2022-09-03T08:33:58.533Z,3.20
2022-09-03T08:36:32.174Z,3.63
2022-09-03T08:39:04.217Z,3.00
2022-09-03T08:42:08.215Z,2.80
2022-09-03T08:44:41.570Z,3.00
2022-09-03T08:47:40.327Z,3.00
2022-09-03T08:50:19.472Z,2.90
2022-09-03T08:53:18.486Z,3.43
2022-09-03T08:55:56.317Z,2.97
2022-09-03T08:58:26.241Z,3.10
2022-09-03T09:01:24.685Z,3.33
2022-09-03T09:04:28.834Z,3.80
2022-09-03T09:07:13.686Z,3.40
2022-09-03T09:10:05.152Z,3.37
2022-09-03T09:13:02.377Z,3.80
2022-09-03T09:15:53.670Z,4.30
2022-09-03T09:18:46.281Z,4.40
2022-09-03T09:21:22.708Z,3.80
2022-09-03T09:23:51.903Z,4.20
2022-09-03T09:26:21.503Z,4.00
2022-09-03T09:28:57.171Z,4.67
2022-09-03T09:31:23.952Z,4.47
2022-09-03T09:33:53.335Z,4.43
2022-09-03T09:36:21.827Z,4.40
2022-09-03T09:38:48.885Z,4.50
2022-09-03T09:41:20.460Z,4.37
2022-09-03T09:43:48.142Z,3.43
2022-09-03T09:46:20.362Z,4.10
2022-09-03T09:48:55.465Z,4.07
2022-09-03T09:51:23.893Z,3.33
2022-09-03T09:54:14.172Z,3.47
2022-09-03T09:56:44.492Z,3.50
2022-09-03T09:59:12.747Z,3.47
2022-09-03T10:01:41.296Z,3.70
2022-09-03T10:04:24.288Z,3.50
2022-09-03T10:07:04.930Z,3.50
2022-09-03T10:09:33.359Z,3.73
2022-09-03T10:12:24.575Z,3.37
2022-09-03T10:15:24.540Z,3.83
2022-09-03T10:17:59.997Z,3.67
2022-09-03T10:20:37.275Z,3.20
2022-09-03T10:23:21.990Z,3.63
2022-09-03T10:26:16.638Z,3.80
2022-09-03T10:28:47.637Z,3.23
2022-09-03T10:31:42.883Z,4.13
2022-09-03T10:34:40.812Z,4.23
2022-09-03T10:37:19.659Z,4.60
2022-09-03T10:40:06.343Z,4.03
2022-09-03T10:42:45.657Z,4.17
2022-09-03T10:45:46.105Z,4.03
2022-09-03T10:48:15.112Z,4.57
2022-09-03T10:50:50.956Z,6.90
2022-09-03T10:53:46.579Z,4.30
2022-09-03T10:56:57.361Z,4.10
2022-09-03T10:59:35.541Z,4.77
2022-09-03T11:02:04.866Z,3.70
2022-09-03T11:04:39.873Z,5.23
2022-09-03T11:07:12.186Z,4.97
2022-09-03T11:09:57.259Z,4.80
2022-09-03T11:12:35.157Z,4.50
2022-09-03T11:23:22.467Z,3.70
2022-09-03T11:25:55.125Z,3.70
2022-09-03T11:29:11.232Z,3.63
2022-09-03T11:40:10.064Z,3.07
2022-09-03T11:42:40.942Z,3.00
2022-09-03T11:45:32.002Z,3.30
2022-09-03T11:47:59.160Z,2.63
2022-09-03T11:50:57.296Z,3.13
2022-09-03T11:54:06.004Z,2.90
2022-09-03T11:56:34.688Z,2.50
2022-09-03T11:59:13.686Z,2.57
2022-09-03T12:11:17.974Z,2.50
2022-09-03T12:13:48.811Z,2.37
2022-09-03T12:17:02.191Z,2.07
2022-09-03T12:19:51.888Z,2.13
2022-09-03T12:22:23.262Z,2.40
2022-09-03T12:27:46.579Z,2.03
2022-09-03T12:30:22.746Z,2.10
2022-09-03T12:32:49.491Z,2.30
2022-09-03T12:38:18.340Z,2.00
2022-09-03T12:43:38.996Z,2.10
2022-09-03T12:46:13.897Z,1.87
2022-09-03T12:49:30.048Z,2.20
2022-09-03T12:51:52.239Z,2.17
2022-09-03T12:54:19.780Z,1.80
2022-09-03T12:56:56.189Z,2.17
2022-09-03T12:59:25.952Z,2.00
2022-09-03T13:01:58.692Z,1.80
2022-09-03T13:04:30.053Z,1.97
2022-09-03T13:07:03.697Z,2.30
2022-09-03T13:09:33.545Z,2.00
2022-09-03T13:12:01.103Z,2.10
2022-09-03T13:14:27.744Z,1.93
2022-09-03T13:17:08.391Z,2.43
2022-09-03T13:19:43.748Z,2.40
2022-09-03T13:22:16.215Z,2.00
2022-09-03T13:25:05.555Z,2.10
2022-09-03T13:27:53.871Z,2.40
2022-09-03T13:30:23.146Z,2.23
2022-09-03T15:02:40.360Z,2.00
2022-09-03T15:19:57.473Z,1.87
2022-09-03T15:33:10.815Z,1.90
2022-09-03T15:35:59.696Z,2.40
2022-09-03T15:38:41.337Z,2.43
2022-09-03T15:41:31.497Z,2.20
2022-09-03T15:44:01.243Z,2.03
2022-09-03T15:46:35.143Z,2.20
2022-09-03T15:49:08.863Z,2.57
2022-09-03T15:51:56.712Z,2.50
2022-09-03T16:28:56.150Z,2.57
2022-09-03T16:32:15.745Z,2.70
2022-09-03T16:35:02.809Z,2.17
2022-09-03T16:38:23.454Z,5.37
2022-09-03T16:41:23.729Z,2.30
2022-09-03T16:44:10.227Z,2.27
2022-09-03T16:47:08.134Z,3.00
2022-09-03T16:50:02.629Z,2.80
2022-09-03T16:55:39.838Z,3.27
2022-09-03T16:58:17.729Z,2.60
2022-09-03T17:01:25.513Z,2.40
2022-09-03T17:05:00.009Z,2.83
2022-09-03T17:07:59.395Z,2.83
2022-09-03T17:10:44.621Z,2.90
2022-09-03T17:13:46.806Z,2.73
2022-09-03T17:16:41.276Z,3.30
2022-09-03T17:19:31.365Z,2.57
2022-09-03T17:22:25.530Z,3.10
2022-09-03T17:25:10.938Z,3.87
2022-09-03T17:28:25.198Z,3.10
2022-09-03T17:30:58.810Z,3.70
2022-09-03T17:33:46.883Z,3.27
2022-09-03T17:36:22.343Z,2.83
2022-09-03T17:38:54.890Z,3.17
2022-09-03T17:41:34.302Z,3.00
2022-09-03T17:44:36.173Z,2.80
2022-09-03T17:47:05.498Z,3.50
2022-09-03T17:49:42.547Z,3.43
2022-09-03T17:52:49.597Z,3.45
2022-09-03T17:55:44.661Z,3.13
2022-09-03T17:58:37.167Z,2.80
2022-09-03T18:01:15.632Z,4.47
2022-09-03T18:04:37.279Z,3.30
2022-09-03T18:07:29.522Z,3.77
2022-09-03T18:10:06.502Z,3.63
2022-09-03T18:13:03.561Z,3.50
2022-09-03T18:15:52.468Z,3.07
2022-09-03T18:18:27.435Z,4.67
2022-09-03T18:21:24.387Z,3.60
2022-09-03T18:24:38.312Z,4.30
2022-09-03T18:27:37.007Z,4.87
2022-09-03T18:30:28.084Z,4.67
2022-09-03T18:33:13.406Z,3.73
2022-09-03T18:35:58.225Z,4.20
2022-09-03T18:38:46.579Z,4.20
2022-09-03T18:41:50.034Z,4.77
2022-09-03T18:45:11.945Z,5.23
2022-09-03T18:48:20.188Z,4.03
2022-09-03T18:51:17.723Z,4.00
2022-09-03T18:54:26.474Z,4.60
2022-09-03T18:57:12.217Z,4.00
2022-09-03T19:00:10.365Z,5.27
2022-09-03T19:03:35.966Z,4.57
2022-09-03T19:10:17.098Z,4.27
2022-09-03T19:14:00.248Z,5.60
2022-09-03T19:16:51.427Z,5.87
2022-09-03T19:20:09.012Z,5.63
2022-09-03T19:22:59.037Z,5.90
2022-09-03T19:25:46.986Z,7.30
2022-09-03T19:32:11.427Z,5.57
2022-09-03T19:42:36.748Z,7.33
2022-09-03T19:45:44.002Z,6.47
2022-09-03T19:48:57.825Z,6.30
2022-09-03T19:51:51.191Z,6.27
2022-09-03T19:54:41.352Z,6.80
2022-09-03T19:57:30.896Z,5.50
2022-09-03T20:00:17.693Z,4.97
2022-09-03T20:03:15.037Z,3.60
2022-09-03T20:06:00.528Z,4.10
2022-09-03T20:08:45.782Z,5.17
2022-09-03T20:11:19.460Z,6.47
2022-09-03T20:14:04.707Z,4.67
2022-09-03T20:17:29.122Z,4.60
2022-09-03T20:20:52.247Z,5.57
2022-09-03T20:23:41.606Z,5.30
2022-09-03T20:26:46.012Z,5.20
2022-09-03T20:29:44.442Z,4.77
2022-09-03T20:32:32.492Z,5.80
2022-09-03T20:35:15.712Z,7.20
2022-09-03T20:37:56.026Z,6.80
2022-09-03T20:40:28.682Z,6.30
2022-09-03T20:43:25.977Z,5.10
2022-09-03T20:46:29.214Z,5.67
2022-09-03T20:49:37.779Z,5.00
2022-09-03T20:52:13.715Z,4.57
2022-09-03T20:54:56.991Z,4.23
2022-09-03T20:58:00.847Z,5.60
2022-09-03T21:00:30.895Z,5.10
2022-09-03T21:03:19.807Z,6.13
2022-09-03T21:06:06.727Z,4.47
2022-09-03T21:08:46.130Z,3.47
2022-09-03T21:11:21.261Z,3.70
2022-09-03T21:13:59.864Z,3.93
2022-09-03T21:16:44.563Z,3.50
2022-09-03T21:19:29.653Z,3.83
2022-09-03T21:22:04.993Z,4.47
2022-09-03T21:24:37.501Z,4.43
2022-09-03T21:27:13.107Z,3.57
2022-09-03T21:29:56.078Z,3.50
2022-09-03T21:32:33.890Z,3.93
2022-09-03T21:35:08.400Z,4.20
2022-09-03T21:37:37.515Z,4.03
2022-09-03T21:40:08.027Z,4.10
2022-09-03T21:42:53.447Z,3.97
2022-09-03T21:45:40.246Z,3.33
2022-09-03T21:48:12.584Z,3.87
2022-09-03T21:50:56.089Z,3.10
2022-09-03T21:53:47.058Z,3.40
2022-09-03T21:56:43.561Z,3.47
2022-09-03T21:59:12.625Z,4.20
2022-09-03T22:02:10.565Z,4.07
2022-09-03T22:04:39.938Z,3.33
2022-09-03T22:07:42.911Z,4.67
2022-09-03T22:10:29.818Z,5.17
2022-09-03T22:13:14.582Z,4.00
2022-09-03T22:15:51.486Z,3.70
2022-09-03T22:18:28.795Z,3.90
2022-09-03T22:21:19.676Z,3.77
2022-09-03T22:24:07.410Z,3.70
2022-09-03T22:26:49.349Z,4.40
2022-09-03T22:29:44.306Z,3.57
2022-09-03T22:32:51.630Z,3.07
2022-09-03T22:35:43.981Z,3.37
2022-09-03T22:38:49.385Z,3.53
2022-09-03T22:41:40.626Z,3.40
2022-09-03T22:44:35.716Z,3.27
2022-09-03T22:47:15.837Z,3.47
2022-09-03T22:49:48.755Z,3.10
2022-09-03T22:52:42.931Z,2.90
2022-09-03T22:55:09.470Z,3.90
2022-09-03T22:58:01.546Z,5.67
2022-09-03T23:00:30.703Z,4.30
2022-09-03T23:03:07.579Z,3.90
2022-09-03T23:05:48.500Z,3.30
2022-09-03T23:08:43.237Z,2.87
2022-09-03T23:11:23.077Z,2.97
2022-09-03T23:13:57.971Z,3.30
2022-09-03T23:16:33.641Z,4.03
2022-09-03T23:19:15.227Z,3.33
2022-09-03T23:21:53.349Z,2.80
2022-09-03T23:24:33.728Z,2.83
2022-09-03T23:27:06.405Z,2.53
2022-09-03T23:29:43.626Z,2.80
2022-09-03T23:32:10.213Z,2.70
2022-09-03T23:34:39.963Z,2.80
2022-09-03T23:37:44.119Z,5.13
2022-09-03T23:40:41.475Z,6.03
2022-09-03T23:43:19.762Z,4.33
2022-09-03T23:46:08.033Z,2.70
2022-09-03T23:48:54.667Z,2.50
2022-09-03T23:51:49.719Z,2.80
2022-09-03T23:54:25.165Z,2.70
2022-09-03T23:57:17.964Z,2.60
